sensor_id;sensor_type;location;lat;lon;timestamp;P1;durP1;ratioP1;P2;durP2;ratioP2
47403;SDS011;33157;51.508;4.288;2023-03-11T00:00:42;7.63;;;2.70;;
47403;SDS011;33157;51.508;4.288;2023-03-11T00:05:46;8.30;;;2.28;;
47403;SDS011;33157;51.508;4.288;2023-03-11T00:10:50;11.45;;;1.83;;
47403;SDS011;33157;51.508;4.288;2023-03-11T00:16:00;10.02;;;2.30;;
47403;SDS011;33157;51.508;4.288;2023-03-11T00:21:11;9.27;;;1.83;;
47403;SDS011;33157;51.508;4.288;2023-03-11T00:26:22;9.70;;;1.65;;
47403;SDS011;33157;51.508;4.288;2023-03-11T00:31:23;7.05;;;1.88;;
47403;SDS011;33157;51.508;4.288;2023-03-11T00:41:34;14.65;;;3.80;;
47403;SDS011;33157;51.508;4.288;2023-03-11T00:46:35;4.95;;;1.48;;
47403;SDS011;33157;51.508;4.288;2023-03-11T00:51:54;9.45;;;1.42;;
47403;SDS011;33157;51.508;4.288;2023-03-11T00:57:05;9.15;;;1.52;;
47403;SDS011;33157;51.508;4.288;2023-03-11T01:02:07;6.15;;;1.42;;
47403;SDS011;33157;51.508;4.288;2023-03-11T01:07:09;7.60;;;1.33;;
47403;SDS011;33157;51.508;4.288;2023-03-11T01:12:16;10.73;;;1.40;;
47403;SDS011;33157;51.508;4.288;2023-03-11T01:17:18;8.18;;;1.30;;
47403;SDS011;33157;51.508;4.288;2023-03-11T01:22:34;6.15;;;1.25;;
47403;SDS011;33157;51.508;4.288;2023-03-11T01:27:36;6.07;;;1.35;;
47403;SDS011;33157;51.508;4.288;2023-03-11T01:32:42;8.70;;;1.20;;
47403;SDS011;33157;51.508;4.288;2023-03-11T01:37:44;9.30;;;1.30;;
47403;SDS011;33157;51.508;4.288;2023-03-11T01:47:47;6.70;;;1.65;;
47403;SDS011;33157;51.508;4.288;2023-03-11T01:52:49;5.30;;;0.95;;
47403;SDS011;33157;51.508;4.288;2023-03-11T01:57:56;3.35;;;1.38;;
47403;SDS011;33157;51.508;4.288;2023-03-11T02:03:01;5.18;;;1.08;;
47403;SDS011;33157;51.508;4.288;2023-03-11T02:08:13;5.25;;;1.20;;
47403;SDS011;33157;51.508;4.288;2023-03-11T02:13:14;10.05;;;1.52;;
47403;SDS011;33157;51.508;4.288;2023-03-11T02:18:18;6.50;;;1.73;;
47403;SDS011;33157;51.508;4.288;2023-03-11T02:28:59;4.53;;;1.40;;
47403;SDS011;33157;51.508;4.288;2023-03-11T02:34:05;7.97;;;1.20;;
47403;SDS011;33157;51.508;4.288;2023-03-11T02:39:09;9.02;;;1.27;;
47403;SDS011;33157;51.508;4.288;2023-03-11T02:44:52;4.70;;;1.10;;
47403;SDS011;33157;51.508;4.288;2023-03-11T02:50:03;6.57;;;1.92;;
47403;SDS011;33157;51.508;4.288;2023-03-11T02:55:05;11.35;;;1.75;;
47403;SDS011;33157;51.508;4.288;2023-03-11T03:00:10;5.88;;;1.73;;
47403;SDS011;33157;51.508;4.288;2023-03-11T03:05:16;7.85;;;1.60;;
47403;SDS011;33157;51.508;4.288;2023-03-11T03:10:33;8.68;;;1.92;;
47403;SDS011;33157;51.508;4.288;2023-03-11T03:15:33;6.50;;;1.27;;
47403;SDS011;33157;51.508;4.288;2023-03-11T03:20:34;10.38;;;1.63;;
47403;SDS011;33157;51.508;4.288;2023-03-11T03:25:36;8.63;;;1.52;;
47403;SDS011;33157;51.508;4.288;2023-03-11T03:30:37;6.33;;;1.40;;
47403;SDS011;33157;51.508;4.288;2023-03-11T03:35:45;7.80;;;1.38;;
47403;SDS011;33157;51.508;4.288;2023-03-11T03:40:49;12.70;;;1.70;;
47403;SDS011;33157;51.508;4.288;2023-03-11T03:45:54;5.90;;;1.55;;
47403;SDS011;33157;51.508;4.288;2023-03-11T03:51:06;4.60;;;1.27;;
47403;SDS011;33157;51.508;4.288;2023-03-11T03:56:10;11.07;;;1.67;;
47403;SDS011;33157;51.508;4.288;2023-03-11T04:01:40;11.52;;;1.65;;
47403;SDS011;33157;51.508;4.288;2023-03-11T04:06:52;10.98;;;1.70;;
47403;SDS011;33157;51.508;4.288;2023-03-11T04:11:54;7.93;;;1.38;;
47403;SDS011;33157;51.508;4.288;2023-03-11T04:16:55;5.57;;;1.38;;
47403;SDS011;33157;51.508;4.288;2023-03-11T04:22:03;13.18;;;1.60;;
47403;SDS011;33157;51.508;4.288;2023-03-11T04:27:04;7.20;;;1.33;;
47403;SDS011;33157;51.508;4.288;2023-03-11T04:32:11;6.60;;;1.63;;
47403;SDS011;33157;51.508;4.288;2023-03-11T04:37:12;9.18;;;1.77;;
47403;SDS011;33157;51.508;4.288;2023-03-11T04:42:16;4.75;;;1.35;;
47403;SDS011;33157;51.508;4.288;2023-03-11T04:47:18;7.18;;;1.63;;
47403;SDS011;33157;51.508;4.288;2023-03-11T04:52:21;6.13;;;1.45;;
47403;SDS011;33157;51.508;4.288;2023-03-11T04:57:22;3.75;;;1.48;;
47403;SDS011;33157;51.508;4.288;2023-03-11T05:02:23;8.20;;;1.70;;
47403;SDS011;33157;51.508;4.288;2023-03-11T05:07:29;10.35;;;1.60;;
47403;SDS011;33157;51.508;4.288;2023-03-11T05:12:30;11.20;;;2.35;;
47403;SDS011;33157;51.508;4.288;2023-03-11T05:17:43;4.93;;;1.50;;
47403;SDS011;33157;51.508;4.288;2023-03-11T05:22:46;7.13;;;1.42;;
47403;SDS011;33157;51.508;4.288;2023-03-11T05:27:48;10.07;;;2.72;;
47403;SDS011;33157;51.508;4.288;2023-03-11T05:32:49;6.50;;;1.50;;
47403;SDS011;33157;51.508;4.288;2023-03-11T05:37:56;7.43;;;1.60;;
47403;SDS011;33157;51.508;4.288;2023-03-11T05:42:57;10.68;;;1.70;;
47403;SDS011;33157;51.508;4.288;2023-03-11T05:47:58;15.13;;;2.40;;
47403;SDS011;33157;51.508;4.288;2023-03-11T05:53:06;5.97;;;1.90;;
47403;SDS011;33157;51.508;4.288;2023-03-11T05:58:10;7.38;;;2.72;;
47403;SDS011;33157;51.508;4.288;2023-03-11T06:03:11;8.27;;;2.70;;
47403;SDS011;33157;51.508;4.288;2023-03-11T06:08:13;10.60;;;2.38;;
47403;SDS011;33157;51.508;4.288;2023-03-11T06:13:15;6.80;;;2.37;;
47403;SDS011;33157;51.508;4.288;2023-03-11T06:18:18;10.27;;;2.72;;
47403;SDS011;33157;51.508;4.288;2023-03-11T06:23:21;5.60;;;2.20;;
47403;SDS011;33157;51.508;4.288;2023-03-11T06:28:27;6.55;;;2.35;;
47403;SDS011;33157;51.508;4.288;2023-03-11T06:33:28;5.97;;;2.33;;
47403;SDS011;33157;51.508;4.288;2023-03-11T06:38:30;12.83;;;3.33;;
47403;SDS011;33157;51.508;4.288;2023-03-11T06:48:35;6.72;;;2.80;;
47403;SDS011;33157;51.508;4.288;2023-03-11T06:53:46;6.60;;;2.90;;
47403;SDS011;33157;51.508;4.288;2023-03-11T06:58:52;8.57;;;3.22;;
47403;SDS011;33157;51.508;4.288;2023-03-11T07:03:58;10.38;;;3.15;;
47403;SDS011;33157;51.508;4.288;2023-03-11T07:09:00;15.93;;;3.88;;
47403;SDS011;33157;51.508;4.288;2023-03-11T07:14:01;7.07;;;3.47;;
47403;SDS011;33157;51.508;4.288;2023-03-11T07:19:03;12.52;;;4.03;;
47403;SDS011;33157;51.508;4.288;2023-03-11T07:24:04;17.27;;;7.35;;
47403;SDS011;33157;51.508;4.288;2023-03-11T07:29:06;17.55;;;5.68;;
47403;SDS011;33157;51.508;4.288;2023-03-11T07:34:10;17.80;;;5.75;;
47403;SDS011;33157;51.508;4.288;2023-03-11T07:39:17;16.88;;;6.65;;
47403;SDS011;33157;51.508;4.288;2023-03-11T07:44:22;16.55;;;6.85;;
47403;SDS011;33157;51.508;4.288;2023-03-11T07:49:24;12.55;;;6.18;;
47403;SDS011;33157;51.508;4.288;2023-03-11T07:54:26;15.80;;;5.35;;
47403;SDS011;33157;51.508;4.288;2023-03-11T07:59:27;9.50;;;3.67;;
47403;SDS011;33157;51.508;4.288;2023-03-11T08:04:34;9.63;;;3.97;;
47403;SDS011;33157;51.508;4.288;2023-03-11T08:09:37;11.20;;;4.25;;
47403;SDS011;33157;51.508;4.288;2023-03-11T08:14:43;16.70;;;4.28;;
47403;SDS011;33157;51.508;4.288;2023-03-11T08:19:52;16.45;;;7.15;;
47403;SDS011;33157;51.508;4.288;2023-03-11T08:24:56;12.35;;;4.35;;
47403;SDS011;33157;51.508;4.288;2023-03-11T08:30:11;11.38;;;3.30;;
47403;SDS011;33157;51.508;4.288;2023-03-11T08:35:13;12.65;;;4.55;;
47403;SDS011;33157;51.508;4.288;2023-03-11T08:40:18;6.32;;;1.77;;
47403;SDS011;33157;51.508;4.288;2023-03-11T08:45:20;12.43;;;1.92;;
47403;SDS011;33157;51.508;4.288;2023-03-11T08:50:27;4.65;;;1.40;;
47403;SDS011;33157;51.508;4.288;2023-03-11T08:55:28;9.60;;;1.40;;
47403;SDS011;33157;51.508;4.288;2023-03-11T09:00:35;5.97;;;1.20;;
47403;SDS011;33157;51.508;4.288;2023-03-11T09:05:40;2.38;;;0.60;;
47403;SDS011;33157;51.508;4.288;2023-03-11T09:10:42;6.35;;;0.75;;
47403;SDS011;33157;51.508;4.288;2023-03-11T09:15:44;4.43;;;0.90;;
47403;SDS011;33157;51.508;4.288;2023-03-11T09:20:46;7.20;;;0.88;;
47403;SDS011;33157;51.508;4.288;2023-03-11T09:25:47;5.20;;;1.10;;
47403;SDS011;33157;51.508;4.288;2023-03-11T09:30:48;8.10;;;0.82;;
47403;SDS011;33157;51.508;4.288;2023-03-11T09:35:56;4.90;;;1.10;;
47403;SDS011;33157;51.508;4.288;2023-03-11T09:41:18;6.88;;;0.90;;
47403;SDS011;33157;51.508;4.288;2023-03-11T09:52:18;4.18;;;0.98;;
47403;SDS011;33157;51.508;4.288;2023-03-11T09:57:25;4.65;;;1.00;;
47403;SDS011;33157;51.508;4.288;2023-03-11T10:02:34;5.97;;;1.20;;
47403;SDS011;33157;51.508;4.288;2023-03-11T10:07:44;8.45;;;1.73;;
47403;SDS011;33157;51.508;4.288;2023-03-11T10:13:06;14.40;;;1.27;;
47403;SDS011;33157;51.508;4.288;2023-03-11T10:33:56;8.20;;;1.10;;
47403;SDS011;33157;51.508;4.288;2023-03-11T10:39:08;3.80;;;1.00;;
47403;SDS011;33157;51.508;4.288;2023-03-11T10:44:13;4.93;;;1.10;;
47403;SDS011;33157;51.508;4.288;2023-03-11T10:49:26;7.45;;;1.30;;
47403;SDS011;33157;51.508;4.288;2023-03-11T10:54:35;9.88;;;2.97;;
47403;SDS011;33157;51.508;4.288;2023-03-11T10:59:55;10.80;;;1.90;;
47403;SDS011;33157;51.508;4.288;2023-03-11T11:10:26;7.88;;;1.45;;
47403;SDS011;33157;51.508;4.288;2023-03-11T11:15:34;4.97;;;1.13;;
47403;SDS011;33157;51.508;4.288;2023-03-11T11:20:38;6.88;;;1.02;;
47403;SDS011;33157;51.508;4.288;2023-03-11T11:25:41;5.18;;;0.93;;
47403;SDS011;33157;51.508;4.288;2023-03-11T11:36:11;9.90;;;4.20;;
47403;SDS011;33157;51.508;4.288;2023-03-11T11:41:16;5.75;;;0.80;;
47403;SDS011;33157;51.508;4.288;2023-03-11T11:51:40;3.95;;;0.70;;
47403;SDS011;33157;51.508;4.288;2023-03-11T11:56:54;25.93;;;9.17;;
47403;SDS011;33157;51.508;4.288;2023-03-11T12:12:55;3.85;;;1.00;;
47403;SDS011;33157;51.508;4.288;2023-03-11T12:18:19;3.35;;;0.95;;
47403;SDS011;33157;51.508;4.288;2023-03-11T12:23:28;5.95;;;1.10;;
47403;SDS011;33157;51.508;4.288;2023-03-11T12:33:45;4.38;;;0.60;;
47403;SDS011;33157;51.508;4.288;2023-03-11T12:38:50;3.72;;;0.70;;
47403;SDS011;33157;51.508;4.288;2023-03-11T12:44:00;8.25;;;0.82;;
47403;SDS011;33157;51.508;4.288;2023-03-11T12:49:13;9.02;;;0.85;;
47403;SDS011;33157;51.508;4.288;2023-03-11T12:54:19;1.88;;;0.70;;
47403;SDS011;33157;51.508;4.288;2023-03-11T13:37:12;8.25;;;1.02;;
47403;SDS011;33157;51.508;4.288;2023-03-11T13:41:57;14.52;;;1.15;;
47403;SDS011;33157;51.508;4.288;2023-03-11T13:47:05;5.50;;;1.10;;
47403;SDS011;33157;51.508;4.288;2023-03-11T13:52:13;7.22;;;1.67;;
47403;SDS011;33157;51.508;4.288;2023-03-11T13:57:23;4.22;;;1.30;;
47403;SDS011;33157;51.508;4.288;2023-03-11T14:02:30;6.32;;;1.58;;
47403;SDS011;33157;51.508;4.288;2023-03-11T14:07:33;4.95;;;1.00;;
47403;SDS011;33157;51.508;4.288;2023-03-11T14:12:34;16.90;;;3.55;;
47403;SDS011;33157;51.508;4.288;2023-03-11T14:17:35;34.92;;;8.35;;
47403;SDS011;33157;51.508;4.288;2023-03-11T14:22:40;4.85;;;1.00;;
47403;SDS011;33157;51.508;4.288;2023-03-11T14:27:45;1.48;;;0.60;;
47403;SDS011;33157;51.508;4.288;2023-03-11T14:33:01;4.30;;;1.30;;
47403;SDS011;33157;51.508;4.288;2023-03-11T14:38:23;9.73;;;1.40;;
47403;SDS011;33157;51.508;4.288;2023-03-11T14:43:31;4.50;;;0.80;;
47403;SDS011;33157;51.508;4.288;2023-03-11T14:48:39;8.07;;;1.40;;
47403;SDS011;33157;51.508;4.288;2023-03-11T14:53:48;7.55;;;1.35;;
47403;SDS011;33157;51.508;4.288;2023-03-11T14:59:04;4.90;;;0.90;;
47403;SDS011;33157;51.508;4.288;2023-03-11T15:04:36;8.55;;;1.15;;
47403;SDS011;33157;51.508;4.288;2023-03-11T15:09:39;7.53;;;1.17;;
47403;SDS011;33157;51.508;4.288;2023-03-11T15:14:49;5.50;;;1.38;;
47403;SDS011;33157;51.508;4.288;2023-03-11T15:19:57;7.28;;;1.17;;
47403;SDS011;33157;51.508;4.288;2023-03-11T15:25:00;5.10;;;1.15;;
47403;SDS011;33157;51.508;4.288;2023-03-11T15:35:19;5.75;;;1.60;;
47403;SDS011;33157;51.508;4.288;2023-03-11T15:40:33;10.35;;;2.53;;
47403;SDS011;33157;51.508;4.288;2023-03-11T15:45:37;5.03;;;1.30;;
47403;SDS011;33157;51.508;4.288;2023-03-11T15:56:05;7.40;;;2.28;;
47403;SDS011;33157;51.508;4.288;2023-03-11T16:01:12;11.07;;;2.28;;
47403;SDS011;33157;51.508;4.288;2023-03-11T16:06:14;14.57;;;2.83;;
47403;SDS011;33157;51.508;4.288;2023-03-11T16:11:17;5.40;;;1.98;;
47403;SDS011;33157;51.508;4.288;2023-03-11T16:16:21;5.65;;;1.90;;
47403;SDS011;33157;51.508;4.288;2023-03-11T16:21:31;8.80;;;2.30;;
47403;SDS011;33157;51.508;4.288;2023-03-11T16:26:41;9.35;;;2.72;;
47403;SDS011;33157;51.508;4.288;2023-03-11T16:31:51;8.45;;;3.20;;
47403;SDS011;33157;51.508;4.288;2023-03-11T16:37:01;9.70;;;2.05;;
47403;SDS011;33157;51.508;4.288;2023-03-11T16:42:02;5.93;;;2.05;;
47403;SDS011;33157;51.508;4.288;2023-03-11T16:47:12;6.90;;;1.83;;
47403;SDS011;33157;51.508;4.288;2023-03-11T16:52:15;9.93;;;2.35;;
47403;SDS011;33157;51.508;4.288;2023-03-11T16:57:20;13.55;;;3.42;;
47403;SDS011;33157;51.508;4.288;2023-03-11T17:02:37;12.40;;;2.85;;
47403;SDS011;33157;51.508;4.288;2023-03-11T17:07:39;9.90;;;2.20;;
47403;SDS011;33157;51.508;4.288;2023-03-11T17:12:46;9.10;;;2.30;;
47403;SDS011;33157;51.508;4.288;2023-03-11T17:17:49;7.68;;;2.22;;
47403;SDS011;33157;51.508;4.288;2023-03-11T17:22:59;7.43;;;2.53;;
47403;SDS011;33157;51.508;4.288;2023-03-11T17:28:01;6.03;;;2.47;;
47403;SDS011;33157;51.508;4.288;2023-03-11T17:33:04;11.95;;;2.75;;
47403;SDS011;33157;51.508;4.288;2023-03-11T17:38:06;11.88;;;3.92;;
47403;SDS011;33157;51.508;4.288;2023-03-11T17:43:08;11.43;;;3.47;;
47403;SDS011;33157;51.508;4.288;2023-03-11T17:48:09;10.00;;;2.80;;
47403;SDS011;33157;51.508;4.288;2023-03-11T17:53:12;6.53;;;2.33;;
47403;SDS011;33157;51.508;4.288;2023-03-11T17:58:19;14.53;;;2.53;;
47403;SDS011;33157;51.508;4.288;2023-03-11T18:03:24;8.88;;;2.80;;
47403;SDS011;33157;51.508;4.288;2023-03-11T18:08:26;8.27;;;2.80;;
47403;SDS011;33157;51.508;4.288;2023-03-11T18:19:22;16.15;;;4.65;;
47403;SDS011;33157;51.508;4.288;2023-03-11T18:24:23;11.05;;;4.60;;
47403;SDS011;33157;51.508;4.288;2023-03-11T18:29:25;9.85;;;3.90;;
47403;SDS011;33157;51.508;4.288;2023-03-11T18:34:27;15.18;;;4.22;;
47403;SDS011;33157;51.508;4.288;2023-03-11T18:39:28;10.95;;;5.03;;
47403;SDS011;33157;51.508;4.288;2023-03-11T18:44:30;12.53;;;6.80;;
47403;SDS011;33157;51.508;4.288;2023-03-11T18:49:37;17.80;;;8.45;;
47403;SDS011;33157;51.508;4.288;2023-03-11T18:54:46;15.75;;;7.90;;
47403;SDS011;33157;51.508;4.288;2023-03-11T18:59:47;14.27;;;6.75;;
47403;SDS011;33157;51.508;4.288;2023-03-11T19:04:50;17.48;;;5.47;;
47403;SDS011;33157;51.508;4.288;2023-03-11T19:10:05;10.63;;;4.70;;
47403;SDS011;33157;51.508;4.288;2023-03-11T19:15:09;9.48;;;4.82;;
47403;SDS011;33157;51.508;4.288;2023-03-11T19:20:24;14.57;;;6.70;;
47403;SDS011;33157;51.508;4.288;2023-03-11T19:25:33;12.65;;;6.60;;
47403;SDS011;33157;51.508;4.288;2023-03-11T19:30:35;11.85;;;5.97;;
47403;SDS011;33157;51.508;4.288;2023-03-11T19:35:40;13.88;;;5.78;;
47403;SDS011;33157;51.508;4.288;2023-03-11T19:41:12;29.38;;;12.38;;
47403;SDS011;33157;51.508;4.288;2023-03-11T19:46:23;27.02;;;12.65;;
47403;SDS011;33157;51.508;4.288;2023-03-11T19:51:34;31.50;;;12.75;;
47403;SDS011;33157;51.508;4.288;2023-03-11T20:02:20;20.15;;;10.57;;
47403;SDS011;33157;51.508;4.288;2023-03-11T20:07:21;15.55;;;8.10;;
47403;SDS011;33157;51.508;4.288;2023-03-11T20:18:00;20.38;;;9.18;;
47403;SDS011;33157;51.508;4.288;2023-03-11T20:23:04;16.25;;;8.55;;
47403;SDS011;33157;51.508;4.288;2023-03-11T20:28:12;15.17;;;8.57;;
47403;SDS011;33157;51.508;4.288;2023-03-11T20:33:21;24.50;;;9.30;;
47403;SDS011;33157;51.508;4.288;2023-03-11T20:38:22;20.40;;;8.20;;
47403;SDS011;33157;51.508;4.288;2023-03-11T20:43:27;15.98;;;8.70;;
47403;SDS011;33157;51.508;4.288;2023-03-11T20:48:29;19.45;;;8.27;;
47403;SDS011;33157;51.508;4.288;2023-03-11T20:53:43;14.87;;;7.93;;
47403;SDS011;33157;51.508;4.288;2023-03-11T20:58:54;15.77;;;10.30;;
47403;SDS011;33157;51.508;4.288;2023-03-11T21:04:02;12.07;;;6.70;;
47403;SDS011;33157;51.508;4.288;2023-03-11T21:09:06;16.65;;;7.05;;
47403;SDS011;33157;51.508;4.288;2023-03-11T21:14:17;17.35;;;7.50;;
47403;SDS011;33157;51.508;4.288;2023-03-11T21:19:24;16.73;;;6.38;;
47403;SDS011;33157;51.508;4.288;2023-03-11T21:24:27;10.68;;;5.53;;
47403;SDS011;33157;51.508;4.288;2023-03-11T21:29:29;12.73;;;5.60;;
47403;SDS011;33157;51.508;4.288;2023-03-11T21:34:30;12.93;;;5.57;;
47403;SDS011;33157;51.508;4.288;2023-03-11T21:39:42;14.00;;;5.30;;
47403;SDS011;33157;51.508;4.288;2023-03-11T21:44:44;11.52;;;5.18;;
47403;SDS011;33157;51.508;4.288;2023-03-11T21:49:49;15.10;;;5.80;;
47403;SDS011;33157;51.508;4.288;2023-03-11T21:54:54;11.80;;;5.65;;
47403;SDS011;33157;51.508;4.288;2023-03-11T22:00:01;15.68;;;6.80;;
47403;SDS011;33157;51.508;4.288;2023-03-11T22:05:10;12.38;;;6.22;;
47403;SDS011;33157;51.508;4.288;2023-03-11T22:10:11;11.45;;;6.25;;
47403;SDS011;33157;51.508;4.288;2023-03-11T22:15:25;11.25;;;5.60;;
47403;SDS011;33157;51.508;4.288;2023-03-11T22:20:28;11.43;;;5.05;;
47403;SDS011;33157;51.508;4.288;2023-03-11T22:25:35;12.05;;;4.63;;
47403;SDS011;33157;51.508;4.288;2023-03-11T22:30:39;13.70;;;4.57;;
47403;SDS011;33157;51.508;4.288;2023-03-11T22:35:50;11.77;;;4.38;;
47403;SDS011;33157;51.508;4.288;2023-03-11T22:40:56;11.20;;;4.47;;
47403;SDS011;33157;51.508;4.288;2023-03-11T22:46:00;12.52;;;4.38;;
47403;SDS011;33157;51.508;4.288;2023-03-11T22:51:04;10.82;;;3.35;;
47403;SDS011;33157;51.508;4.288;2023-03-11T22:56:11;8.55;;;3.78;;
47403;SDS011;33157;51.508;4.288;2023-03-11T23:01:37;10.02;;;3.40;;
47403;SDS011;33157;51.508;4.288;2023-03-11T23:06:52;9.27;;;3.50;;
47403;SDS011;33157;51.508;4.288;2023-03-11T23:11:55;9.48;;;3.58;;
47403;SDS011;33157;51.508;4.288;2023-03-11T23:16:57;11.27;;;3.83;;
47403;SDS011;33157;51.508;4.288;2023-03-11T23:21:58;9.05;;;3.28;;
47403;SDS011;33157;51.508;4.288;2023-03-11T23:27:01;9.50;;;3.70;;
47403;SDS011;33157;51.508;4.288;2023-03-11T23:32:05;10.93;;;4.13;;
47403;SDS011;33157;51.508;4.288;2023-03-11T23:37:06;9.47;;;3.80;;
47403;SDS011;33157;51.508;4.288;2023-03-11T23:42:08;9.73;;;3.88;;
47403;SDS011;33157;51.508;4.288;2023-03-11T23:47:12;9.88;;;3.90;;
47403;SDS011;33157;51.508;4.288;2023-03-11T23:52:16;10.73;;;3.85;;
47403;SDS011;33157;51.508;4.288;2023-03-11T23:57:17;11.70;;;3.60;;
